createdAt,value
2018-08-07T05:05:11.686Z,3.33
2018-08-07T05:10:15.047Z,3.90
2018-08-07T05:15:19.167Z,3.00
2018-08-07T05:20:22.494Z,3.33
2018-08-07T05:25:25.823Z,2.80
2018-08-07T05:30:29.163Z,2.97
2018-08-07T05:35:32.494Z,2.70
2018-08-07T05:40:36.612Z,2.87
2018-08-07T05:45:39.942Z,2.60
2018-08-07T05:50:43.535Z,2.23
2018-08-07T05:55:46.613Z,2.10
2018-08-07T06:00:49.946Z,2.67
2018-08-07T06:05:53.270Z,2.90
2018-08-07T06:10:56.645Z,2.97
2018-08-07T06:16:00.709Z,2.97
2018-08-07T06:21:04.052Z,3.13
2018-08-07T06:26:07.389Z,2.97
2018-08-07T06:31:11.518Z,3.80
2018-08-07T06:36:15.615Z,2.90
2018-08-07T06:41:18.961Z,3.27
2018-08-07T06:46:37.927Z,2.90
2018-08-07T06:51:42.017Z,2.50
2018-08-07T06:56:45.362Z,2.70
2018-08-07T07:01:48.690Z,2.60
2018-08-07T07:06:52.779Z,3.13
2018-08-07T07:11:56.105Z,2.40
2018-08-07T07:16:59.438Z,2.70
2018-08-07T07:22:03.523Z,2.63
2018-08-07T07:27:06.861Z,2.63
2018-08-07T07:32:10.202Z,2.47
2018-08-07T07:37:13.541Z,2.20
2018-08-07T07:42:16.873Z,2.53
2018-08-07T07:47:20.205Z,2.93
2018-08-07T07:52:23.526Z,3.10
2018-08-07T07:57:26.854Z,3.33
2018-08-07T08:02:30.946Z,3.30
2018-08-07T08:07:34.286Z,3.20
2018-08-07T08:12:37.619Z,2.33
2018-08-07T08:17:40.938Z,3.10
2018-08-07T08:22:45.039Z,3.40
2018-08-07T08:27:48.376Z,3.37
2018-08-07T08:32:52.470Z,3.30
2018-08-07T08:37:55.805Z,3.20
2018-08-07T08:42:59.898Z,3.10
2018-08-07T08:48:03.229Z,3.80
2018-08-07T08:53:06.561Z,3.90
2018-08-07T08:58:10.658Z,3.30
2018-08-07T09:03:13.986Z,3.20
2018-08-07T09:08:17.324Z,3.30
2018-08-07T09:13:20.644Z,3.87
2018-08-07T09:18:23.978Z,2.90
2018-08-07T09:23:27.315Z,2.93
2018-08-07T09:28:30.642Z,2.70
2018-08-07T09:33:34.226Z,3.20
2018-08-07T09:38:37.555Z,3.23
2018-08-07T09:43:41.170Z,3.10
2018-08-07T09:48:44.493Z,3.30
2018-08-07T09:53:47.831Z,3.17
2018-08-07T09:58:51.311Z,2.90
2018-08-07T10:03:54.690Z,3.10
2018-08-07T10:08:58.018Z,3.53
2018-08-07T10:14:01.355Z,3.53
2018-08-07T10:19:04.709Z,3.00
2018-08-07T10:24:08.031Z,3.33
2018-08-07T10:29:11.396Z,3.17
2018-08-07T10:34:14.751Z,3.27
2018-08-07T10:39:18.854Z,3.07
2018-08-07T10:44:22.198Z,2.57
2018-08-07T10:49:26.470Z,3.37
2018-08-07T10:54:29.982Z,3.37
2018-08-07T10:59:33.319Z,3.63
2018-08-07T11:04:36.662Z,3.43
2018-08-07T11:09:39.986Z,3.23
2018-08-07T11:14:43.315Z,3.33
2018-08-07T11:19:46.642Z,4.00
2018-08-07T11:24:50.075Z,3.37
2018-08-07T11:29:53.402Z,3.53
2018-08-07T11:34:56.890Z,3.50
2018-08-07T11:40:00.410Z,3.90
2018-08-07T11:45:03.806Z,4.87
2018-08-07T11:50:07.400Z,3.77
2018-08-07T11:55:11.547Z,3.83
2018-08-07T12:00:14.900Z,4.13
2018-08-07T12:05:18.242Z,3.97
2018-08-07T12:10:21.565Z,4.28
2018-08-07T12:15:25.661Z,3.83
2018-08-07T12:20:28.990Z,4.15
2018-08-07T12:25:32.313Z,4.10
2018-08-07T12:30:35.640Z,4.37
2018-08-07T12:35:38.978Z,4.00
2018-08-07T12:40:42.305Z,4.05
2018-08-07T12:45:45.633Z,4.20
2018-08-07T12:50:48.969Z,4.43
2018-08-07T12:55:53.067Z,4.20
2018-08-07T13:00:56.403Z,4.20
2018-08-07T13:05:59.731Z,4.53
2018-08-07T13:11:03.827Z,4.35
2018-08-07T13:16:07.173Z,3.85
2018-08-07T13:21:11.266Z,3.58
2018-08-07T13:26:14.589Z,3.85
2018-08-07T13:31:18.000Z,3.62
2018-08-07T13:36:21.270Z,3.50
2018-08-07T13:41:24.602Z,4.60
2018-08-07T13:46:27.945Z,4.15
2018-08-07T13:51:31.281Z,3.55
2018-08-07T13:56:35.375Z,3.72
2018-08-07T14:01:38.698Z,2.80
2018-08-07T14:06:42.032Z,3.78
2018-08-07T14:11:46.131Z,3.53
2018-08-07T14:16:49.458Z,3.53
2018-08-07T14:21:52.802Z,3.92
2018-08-07T14:26:56.154Z,3.70
2018-08-07T14:31:59.485Z,2.95
2018-08-07T14:37:02.814Z,2.70
2018-08-07T14:42:06.297Z,2.78
2018-08-07T14:47:09.645Z,3.10
2018-08-07T14:52:13.938Z,2.95
2018-08-07T14:57:17.293Z,2.10
2018-08-07T15:02:21.494Z,2.10
2018-08-07T15:07:24.846Z,2.10
2018-08-07T15:12:28.980Z,2.90
2018-08-07T15:17:33.266Z,2.80
2018-08-07T15:22:36.617Z,2.62
2018-08-07T15:27:40.078Z,2.37
2018-08-07T15:32:43.435Z,2.47
2018-08-07T15:37:46.920Z,3.00
2018-08-07T15:42:50.241Z,3.12
2018-08-07T15:47:53.566Z,2.62
2018-08-07T15:52:56.944Z,2.70
2018-08-07T15:58:00.238Z,2.22
2018-08-07T16:03:03.834Z,2.00
2018-08-07T16:08:07.939Z,2.60
2018-08-07T16:13:11.574Z,2.05
2018-08-07T16:18:14.905Z,2.12
2018-08-07T16:23:19.001Z,1.80
2018-08-07T16:28:23.492Z,2.20
2018-08-07T16:33:31.945Z,1.95
2018-08-07T16:38:36.236Z,2.08
2018-08-07T16:43:44.798Z,2.30
2018-08-07T16:48:56.897Z,2.10
2018-08-07T16:54:05.132Z,2.28
2018-08-07T16:59:15.489Z,2.55
2018-08-07T17:04:20.856Z,2.30
2018-08-07T17:09:27.280Z,2.65
2018-08-07T17:14:35.099Z,2.25
2018-08-07T17:19:42.519Z,2.40
2018-08-07T17:24:48.553Z,2.80
2018-08-07T17:29:55.739Z,2.87
2018-08-07T17:35:06.073Z,2.53
2018-08-07T17:40:12.300Z,2.33
2018-08-07T17:45:23.562Z,2.50
2018-08-07T17:50:32.206Z,2.20
2018-08-07T17:55:38.163Z,2.30
2018-08-07T18:00:43.187Z,2.70
2018-08-07T18:05:48.416Z,2.85
2018-08-07T18:10:55.013Z,3.00
2018-08-07T18:16:11.604Z,2.87
2018-08-07T18:21:17.886Z,2.65
2018-08-07T18:26:23.142Z,3.50
2018-08-07T18:31:28.867Z,3.95
2018-08-07T18:36:38.165Z,6.22
2018-08-07T18:41:44.493Z,6.35
2018-08-07T18:46:53.913Z,5.62
2018-08-07T18:51:57.632Z,6.60
2018-08-07T18:57:02.103Z,4.95
2018-08-07T19:02:05.544Z,5.37
2018-08-07T19:07:09.736Z,5.68
2018-08-07T19:12:13.091Z,4.50
2018-08-07T19:17:16.477Z,3.90
2018-08-07T19:22:19.830Z,4.30
2018-08-07T19:27:23.572Z,4.30
2018-08-07T19:32:39.440Z,4.53
2018-08-07T19:37:42.769Z,4.43
2018-08-07T19:42:47.335Z,3.93
2018-08-07T19:47:50.691Z,4.07
2018-08-07T19:52:54.021Z,4.87
2018-08-07T19:57:57.356Z,4.68
2018-08-07T20:03:01.453Z,3.77
2018-08-07T20:08:04.782Z,3.87
2018-08-07T20:13:08.879Z,3.90
2018-08-07T20:18:12.205Z,4.17
2018-08-07T20:23:15.539Z,4.27
2018-08-07T20:28:19.905Z,3.87
2018-08-07T20:33:23.417Z,4.23
2018-08-07T20:38:27.047Z,3.47
2018-08-07T20:43:31.461Z,3.50
2018-08-07T20:48:35.196Z,4.50
2018-08-07T20:53:39.019Z,4.03
2018-08-07T20:58:42.841Z,3.70
2018-08-07T21:03:46.592Z,6.67
2018-08-07T21:08:50.497Z,4.90
2018-08-07T21:13:54.385Z,4.50
2018-08-07T21:18:57.894Z,4.43
2018-08-07T21:24:01.999Z,5.13
2018-08-07T21:29:05.334Z,5.07
2018-08-07T21:34:08.662Z,4.57
2018-08-07T21:39:12.751Z,5.57
2018-08-07T21:44:16.075Z,5.97
2018-08-07T21:49:19.393Z,4.63
2018-08-07T21:54:22.714Z,4.87
2018-08-07T21:59:26.045Z,4.30
2018-08-07T22:04:29.370Z,6.80
2018-08-07T22:09:32.695Z,5.27
2018-08-07T22:14:36.026Z,4.63
2018-08-07T22:19:39.366Z,4.00
2018-08-07T22:24:42.702Z,3.87
2018-08-07T22:29:46.041Z,4.17
